Time;durP1;ratioP1;P1;durP2;ratioP2;P2;SDS_P1;SDS_P2;PMS_P1;PMS_P2;Temp;Humidity;BMP_temperature;BMP_pressure;BME280_temperature;BME280_humidity;BME280_pressure;Samples;Min_cycle;Max_cycle;Signal;HPM_P1;HPM_P2
2023/03/27 00:01:21;;;;;;;68.80;33.90;;;;;;;9.65;60.34;93651.25;6299427;22;20516;-77
2023/03/27 00:03:49;;;;;;;69.13;32.03;;;;;;;9.51;61.07;93655.19;6299772;22;20165;-78
2023/03/27 00:06:19;;;;;;;62.97;31.57;;;;;;;9.43;60.90;93643.41;6299017;22;20165;-78
2023/03/27 00:08:49;;;;;;;48.27;24.33;;;;;;;9.32;60.80;93648.66;6301015;22;20576;-78
2023/03/27 00:11:17;;;;;;;50.23;26.13;;;;;;;9.19;61.37;93648.94;6301017;22;20719;-78
2023/03/27 00:13:43;;;;;;;48.83;24.67;;;;;;;9.17;62.14;93651.00;6299338;22;20200;-77
2023/03/27 00:16:11;;;;;;;47.30;24.70;;;;;;;9.20;62.76;93629.78;6299630;22;20283;-78
2023/03/27 00:18:38;;;;;;;48.67;24.67;;;;;;;9.19;62.75;93641.97;6299275;22;20187;-78
2023/03/27 00:21:05;;;;;;;51.57;24.10;;;;;;;9.27;62.53;93644.16;6301230;22;20172;-79
2023/03/27 00:23:33;;;;;;;48.57;23.80;;;;;;;9.24;61.73;93636.06;6300580;22;20157;-79
2023/03/27 00:26:00;;;;;;;44.53;23.67;;;;;;;9.35;62.15;93627.44;6300689;22;20172;-79
2023/03/27 00:28:29;;;;;;;42.93;23.00;;;;;;;9.23;63.18;93632.69;6301034;22;20167;-79
2023/03/27 00:30:57;;;;;;;38.00;21.00;;;;;;;9.25;62.30;93650.59;6306588;22;20244;-79
2023/03/27 00:33:25;;;;;;;39.03;20.67;;;;;;;9.01;61.07;93650.72;6304314;22;20275;-78
2023/03/27 00:35:52;;;;;;;42.97;20.53;;;;;;;9.00;61.96;93599.91;6308960;22;20168;-79
2023/03/27 00:38:19;;;;;;;38.67;17.77;;;;;;;8.99;60.72;93646.78;6314007;22;20168;-79
2023/03/27 00:40:49;;;;;;;32.93;17.90;;;;;;;8.96;59.92;93624.72;6312073;22;20168;-79
2023/03/27 00:43:21;;;;;;;33.00;17.90;;;;;;;8.93;61.07;93629.59;6307196;22;20206;-80
2023/03/27 00:45:49;;;;;;;36.63;17.73;;;;;;;8.90;61.23;93630.84;6305986;22;20168;-80
2023/03/27 00:48:17;;;;;;;33.63;16.43;;;;;;;8.87;61.09;93600.22;6306006;22;20177;-78
2023/03/27 00:50:46;;;;;;;32.47;17.83;;;;;;;8.91;60.71;93618.69;6303832;22;20165;-78
2023/03/27 00:53:16;;;;;;;26.87;14.07;;;;;;;8.76;60.92;93603.66;6303212;22;20223;-78
2023/03/27 00:55:46;;;;;;;36.47;15.57;;;;;;;8.78;61.45;93599.03;6304106;22;20188;-78
2023/03/27 00:58:19;;;;;;;29.30;14.83;;;;;;;8.73;61.63;93601.53;6302403;22;20217;-78
2023/03/27 01:00:49;;;;;;;30.93;14.93;;;;;;;8.74;61.90;93576.41;6303313;22;20153;-79
2023/03/27 01:03:16;;;;;;;30.63;14.77;;;;;;;8.83;61.79;93593.91;6302722;22;20164;-77
2023/03/27 01:05:43;;;;;;;29.17;14.40;;;;;;;8.77;61.55;93571.56;6302444;22;20555;-79
2023/03/27 01:08:11;;;;;;;28.30;14.77;;;;;;;8.91;63.01;93585.00;6303827;22;20168;-79
2023/03/27 01:10:53;;;;;;;30.23;13.53;;;;;;;8.96;61.34;93580.69;6302454;22;20200;-79
2023/03/27 01:13:38;;;;;;;31.27;14.07;;;;;;;8.92;59.80;93578.78;6302466;22;20821;-79
2023/03/27 01:16:11;;;;;;;28.07;14.33;;;;;;;8.84;61.63;93574.78;6302213;22;20191;-79
2023/03/27 01:18:52;;;;;;;29.57;13.30;;;;;;;8.86;60.61;93570.13;6302804;22;20181;-79
2023/03/27 01:21:52;;;;;;;25.50;13.57;;;;;;;8.95;60.68;93560.97;6304546;22;20163;-79
2023/03/27 01:24:57;;;;;;;29.63;13.70;;;;;;;8.90;61.39;93565.28;6293774;22;20175;-79
2023/03/27 01:27:43;;;;;;;25.27;13.80;;;;;;;8.78;61.98;93561.97;6303488;22;20168;-78
2023/03/27 01:30:18;;;;;;;28.27;13.23;;;;;;;8.71;61.10;93567.31;6301719;22;20167;-78
2023/03/27 01:33:11;;;;;;;24.80;11.73;;;;;;;8.75;60.87;93565.03;6301075;22;20189;-77
2023/03/27 01:36:10;;;;;;;24.40;11.27;;;;;;;8.80;60.40;93555.53;6300357;22;20231;-77
2023/03/27 01:39:06;;;;;;;19.03;10.93;;;;;;;8.82;60.28;93563.88;6301435;22;20161;-78
2023/03/27 01:41:41;;;;;;;19.87;11.17;;;;;;;8.83;60.46;93549.88;6300881;22;20211;-77
2023/03/27 01:44:14;;;;;;;18.57;11.10;;;;;;;8.88;60.63;93544.00;6301445;22;20753;-77
2023/03/27 01:46:49;;;;;;;17.97;10.80;;;;;;;8.93;60.12;93542.28;6303315;22;20152;-78
2023/03/27 01:49:20;;;;;;;17.43;11.03;;;;;;;8.94;61.01;93540.50;6300940;22;20157;-78
2023/03/27 01:51:52;;;;;;;20.37;10.50;;;;;;;8.93;60.62;93531.13;6301699;22;20171;-78
2023/03/27 01:54:23;;;;;;;19.07;10.60;;;;;;;8.98;59.60;93521.63;6302626;22;20180;-78
2023/03/27 01:56:55;;;;;;;17.63;10.70;;;;;;;9.03;60.06;93513.94;6300946;22;20163;-78
2023/03/27 01:59:25;;;;;;;16.87;10.10;;;;;;;9.11;60.03;93523.94;6302584;22;20153;-78
2023/03/27 02:01:59;;;;;;;15.90;9.77;;;;;;;9.14;58.46;93530.44;6290142;22;20158;-78
2023/03/27 02:04:33;;;;;;;19.67;11.30;;;;;;;9.04;59.27;93519.91;6299061;22;20148;-77
2023/03/27 02:07:06;;;;;;;22.50;11.20;;;;;;;9.03;59.77;93534.66;6299067;22;20156;-77
2023/03/27 02:09:37;;;;;;;23.53;11.57;;;;;;;8.94;59.92;93514.56;6299465;22;20180;-77
2023/03/27 02:12:11;;;;;;;17.37;11.13;;;;;;;8.92;60.42;93527.75;6300932;22;20233;-76
2023/03/27 02:14:41;;;;;;;18.23;10.53;;;;;;;8.86;59.96;93512.38;6299363;22;20216;-77
2023/03/27 02:17:12;;;;;;;16.33;10.70;;;;;;;8.73;60.71;93503.09;6300159;22;20200;-77
2023/03/27 02:19:48;;;;;;;22.63;10.53;;;;;;;8.50;61.24;93529.13;6300677;22;20243;-77
2023/03/27 02:22:15;;;;;;;18.30;10.03;;;;;;;8.43;61.35;93461.16;6300970;22;20167;-77
2023/03/27 02:24:42;;;;;;;14.20;8.83;;;;;;;8.31;62.15;93531.13;6302599;22;20901;-77
2023/03/27 02:27:17;;;;;;;21.20;11.53;;;;;;;8.35;61.83;93485.66;6300930;22;20245;-78
2023/03/27 02:30:00;;;;;;;18.70;10.40;;;;;;;8.24;62.18;93498.59;6301120;22;20159;-77
2023/03/27 02:32:37;;;;;;;16.70;9.67;;;;;;;8.18;60.99;93491.75;6300229;22;20153;-77
2023/03/27 02:35:16;;;;;;;18.33;10.30;;;;;;;8.24;62.09;93470.13;6300430;22;20183;-77
2023/03/27 02:37:54;;;;;;;17.50;9.30;;;;;;;8.25;61.56;93495.81;6300820;22;20238;-77
2023/03/27 02:40:33;;;;;;;20.57;10.80;;;;;;;8.23;62.22;93459.00;6302514;22;20160;-78
2023/03/27 02:43:08;;;;;;;20.20;11.23;;;;;;;8.28;62.72;93455.75;6300513;22;20156;-78
2023/03/27 02:45:43;;;;;;;26.70;12.13;;;;;;;8.32;63.08;93436.16;6300175;22;20155;-78
2023/03/27 02:48:16;;;;;;;21.30;10.73;;;;;;;8.35;63.27;93431.28;6300762;22;20171;-77
2023/03/27 02:50:48;;;;;;;19.67;10.73;;;;;;;8.39;62.57;93440.16;6300381;22;20149;-78
2023/03/27 02:53:18;;;;;;;25.17;12.10;;;;;;;8.37;63.00;93433.63;6303201;22;20156;-78
2023/03/27 02:55:52;;;;;;;22.43;12.03;;;;;;;8.40;62.87;93415.03;6301285;22;20177;-78
2023/03/27 02:58:25;;;;;;;23.13;11.93;;;;;;;8.40;62.40;93417.63;6300398;22;20168;-77
2023/03/27 03:00:53;;;;;;;24.40;11.67;;;;;;;8.34;62.21;93421.94;6299908;22;20186;-78
2023/03/27 03:03:26;;;;;;;20.10;10.70;;;;;;;8.34;63.17;93424.53;6300047;22;20183;-78
2023/03/27 03:05:53;;;;;;;21.23;11.30;;;;;;;8.43;63.28;93419.75;6302235;22;20163;-78
2023/03/27 03:08:20;;;;;;;24.13;10.87;;;;;;;8.51;63.06;93409.03;6300428;22;20172;-77
2023/03/27 03:10:48;;;;;;;20.30;10.93;;;;;;;8.57;63.20;93404.72;6300397;22;20632;-78
2023/03/27 03:13:15;;;;;;;21.93;10.47;;;;;;;8.57;62.78;93386.59;6300909;22;20175;-78
2023/03/27 03:15:44;;;;;;;17.10;9.93;;;;;;;8.59;61.98;93393.09;6300622;22;20203;-78
2023/03/27 03:18:11;;;;;;;30.10;11.07;;;;;;;8.68;61.86;93406.44;6301842;22;20598;-78
2023/03/27 03:20:38;;;;;;;23.07;11.57;;;;;;;8.59;62.24;93393.09;6299909;22;20172;-77
2023/03/27 03:23:06;;;;;;;24.10;11.90;;;;;;;8.61;62.25;93374.72;6299166;22;20513;-78
2023/03/27 03:25:33;;;;;;;26.50;13.57;;;;;;;8.33;63.06;93378.19;6299873;22;20199;-78
2023/03/27 03:28:00;;;;;;;22.53;12.23;;;;;;;8.25;64.42;93369.00;6301581;22;20510;-78
2023/03/27 03:30:29;;;;;;;26.03;13.23;;;;;;;8.12;63.76;93366.69;6299691;22;20164;-78
2023/03/27 03:32:58;;;;;;;25.60;13.20;;;;;;;8.00;65.57;93371.94;6300332;22;20192;-78
2023/03/27 03:35:26;;;;;;;22.53;10.63;;;;;;;7.98;65.72;93380.97;6299783;22;20256;-78
2023/03/27 03:37:53;;;;;;;19.87;9.87;;;;;;;7.93;66.36;93365.38;6300879;22;20628;-78
2023/03/27 03:40:20;;;;;;;18.27;9.67;;;;;;;7.84;66.99;93352.03;6301312;22;20339;-78
2023/03/27 03:42:49;;;;;;;40.27;11.07;;;;;;;7.91;67.60;93395.81;6300561;22;20167;-79
2023/03/27 03:45:17;;;;;;;29.10;10.87;;;;;;;7.93;67.28;93384.25;6299829;22;20622;-77
2023/03/27 03:47:44;;;;;;;22.90;12.23;;;;;;;8.01;67.25;93364.97;6300380;22;20908;-78
2023/03/27 03:50:13;;;;;;;19.53;10.93;;;;;;;8.05;66.81;93354.94;6301449;22;20279;-78
2023/03/27 03:52:40;;;;;;;18.83;10.63;;;;;;;8.22;67.21;93379.03;6300323;22;20519;-79
2023/03/27 03:55:09;;;;;;;23.77;11.90;;;;;;;8.24;65.51;93364.84;6299677;22;20367;-79
2023/03/27 03:57:39;;;;;;;30.17;13.27;;;;;;;8.26;65.04;93365.38;6299845;22;20160;-79
2023/03/27 04:00:11;;;;;;;31.10;12.50;;;;;;;8.34;65.12;93387.53;6300032;22;20152;-79
2023/03/27 04:02:40;;;;;;;31.47;15.83;;;;;;;8.20;65.03;93358.53;6301653;22;20293;-78
2023/03/27 04:05:08;;;;;;;32.27;16.50;;;;;;;8.22;65.55;93355.75;6300145;22;20202;-79
2023/03/27 04:07:36;;;;;;;28.67;15.93;;;;;;;8.08;66.04;93367.41;6299705;22;20171;-80
2023/03/27 04:10:04;;;;;;;32.23;16.33;;;;;;;8.06;66.26;93364.25;6301899;22;20164;-77
2023/03/27 04:12:30;;;;;;;31.67;17.13;;;;;;;7.98;66.18;93371.41;6302979;22;20168;-81
2023/03/27 04:14:57;;;;;;;39.47;18.53;;;;;;;8.00;67.63;93350.47;6302927;22;20561;-75
2023/03/27 04:17:25;;;;;;;36.63;18.00;;;;;;;8.09;65.66;93368.97;6300501;22;20200;-74
2023/03/27 04:19:53;;;;;;;30.90;15.27;;;;;;;8.15;64.56;93349.91;6300990;22;20209;-76
2023/03/27 04:22:22;;;;;;;24.73;14.00;;;;;;;8.18;63.40;93362.38;6301504;22;20172;-76
2023/03/27 04:24:52;;;;;;;30.23;14.07;;;;;;;8.20;63.90;93384.41;6303336;22;20161;-76
2023/03/27 04:27:20;;;;;;;35.60;15.73;;;;;;;8.20;64.45;93355.97;6300583;22;20188;-76
2023/03/27 04:29:47;;;;;;;38.37;16.60;;;;;;;8.16;66.03;93374.78;6301478;22;20249;-77
2023/03/27 04:32:17;;;;;;;38.47;15.87;;;;;;;7.95;67.06;93330.47;6301168;22;20229;-77
2023/03/27 04:34:44;;;;;;;35.50;15.57;;;;;;;7.98;66.61;93389.50;6302531;22;20172;-75
2023/03/27 04:37:11;;;;;;;29.93;13.83;;;;;;;7.96;67.41;93297.66;6302208;22;20209;-76
2023/03/27 04:39:41;;;;;;;24.60;12.87;;;;;;;7.91;67.22;93347.47;6301453;22;20241;-75
2023/03/27 04:42:10;;;;;;;29.77;12.77;;;;;;;7.91;68.26;93349.28;6300568;22;20168;-75
2023/03/27 04:44:37;;;;;;;24.27;11.03;;;;;;;7.89;67.78;93357.28;6299788;22;20650;-75
2023/03/27 04:47:05;;;;;;;24.77;10.57;;;;;;;7.93;67.48;93345.47;6302337;22;20167;-76
2023/03/27 04:49:37;;;;;;;24.77;10.77;;;;;;;8.05;67.92;93318.72;6300268;22;20168;-76
2023/03/27 04:52:05;;;;;;;25.67;10.33;;;;;;;8.15;64.93;93357.69;6300958;22;20156;-76
2023/03/27 04:54:32;;;;;;;27.10;10.20;;;;;;;8.20;64.43;93313.78;6300707;22;20261;-75
2023/03/27 04:57:00;;;;;;;21.67;10.73;;;;;;;8.30;64.04;93322.53;6301218;22;20164;-75
2023/03/27 04:59:30;;;;;;;18.63;10.17;;;;;;;8.37;62.24;93320.53;6302083;22;20243;-74
2023/03/27 05:01:57;;;;;;;24.90;9.47;;;;;;;8.49;61.78;93292.75;6300648;22;20524;-74
2023/03/27 05:04:25;;;;;;;28.43;11.40;;;;;;;8.62;61.73;93334.88;6300240;22;20175;-75
2023/03/27 05:06:52;;;;;;;24.00;11.13;;;;;;;8.64;60.90;93338.00;6299978;22;20168;-76
2023/03/27 05:09:19;;;;;;;24.50;11.43;;;;;;;8.71;62.03;93294.59;6301976;22;20172;-75
2023/03/27 05:11:48;;;;;;;38.77;16.10;;;;;;;8.76;63.00;93329.13;6300994;22;20172;-76
2023/03/27 05:14:16;;;;;;;30.77;15.93;;;;;;;8.84;60.34;93320.94;6300132;22;20160;-75
2023/03/27 05:16:44;;;;;;;41.83;15.80;;;;;;;8.83;60.40;93288.25;6300095;22;20195;-75
2023/03/27 05:19:11;;;;;;;30.33;15.10;;;;;;;8.96;60.36;93282.75;6301097;22;20791;-76
2023/03/27 05:21:38;;;;;;;26.33;14.20;;;;;;;9.03;59.26;93296.28;6301336;22;20172;-77
2023/03/27 05:24:06;;;;;;;29.23;13.93;;;;;;;9.07;59.39;93274.06;6300049;22;20511;-75
2023/03/27 05:26:33;;;;;;;34.87;13.70;;;;;;;9.23;58.28;93264.66;6299660;22;20171;-75
2023/03/27 05:28:59;;;;;;;33.27;13.47;;;;;;;9.34;58.85;93253.34;6301007;22;20250;-75
2023/03/27 05:31:27;;;;;;;30.57;13.43;;;;;;;9.42;58.73;93260.69;6302791;22;20243;-76
2023/03/27 05:33:55;;;;;;;30.10;13.20;;;;;;;9.55;58.58;93242.13;6300741;22;20168;-76
2023/03/27 05:36:22;;;;;;;25.00;12.03;;;;;;;9.63;57.72;93230.53;6299503;22;20196;-76
2023/03/27 05:38:49;;;;;;;26.90;12.57;;;;;;;9.81;57.03;93224.97;6300464;22;20172;-76
2023/03/27 05:41:16;;;;;;;33.30;12.33;;;;;;;9.96;55.81;93213.91;6300907;22;20584;-77
2023/03/27 05:43:44;;;;;;;31.07;12.07;;;;;;;10.03;55.79;93198.91;6301966;22;20188;-77
2023/03/27 05:46:11;;;;;;;23.97;12.07;;;;;;;10.09;56.19;93190.13;6300307;22;20229;-77
2023/03/27 05:48:38;;;;;;;30.50;12.23;;;;;;;10.18;54.47;93178.28;6300587;22;20371;-76
2023/03/27 05:51:08;;;;;;;22.97;12.30;;;;;;;10.27;54.56;93168.19;6299873;22;20176;-76
2023/03/27 05:53:38;;;;;;;28.50;12.33;;;;;;;10.25;52.29;93153.63;6302731;22;20241;-76
2023/03/27 05:56:05;;;;;;;30.57;13.63;;;;;;;10.25;52.24;93145.84;6300292;22;20227;-77
2023/03/27 05:58:32;;;;;;;32.87;13.73;;;;;;;10.30;52.24;93139.91;6300192;22;20195;-77
2023/03/27 06:01:01;;;;;;;30.80;13.60;;;;;;;10.46;50.96;93131.13;6300056;22;20183;-78
2023/03/27 06:03:29;;;;;;;25.20;12.60;;;;;;;10.59;50.36;93116.91;6300885;22;20199;-78
2023/03/27 06:05:56;;;;;;;23.63;11.90;;;;;;;10.64;51.31;93096.13;6300196;22;20210;-79
2023/03/27 06:08:25;;;;;;;22.60;10.70;;;;;;;10.75;50.79;93072.53;6298056;22;20168;-77
2023/03/27 06:11:05;;;;;;;19.53;9.27;;;;;;;10.84;50.88;93096.19;6302567;22;20249;-77
2023/03/27 06:13:33;;;;;;;24.03;9.20;;;;;;;10.95;50.63;93086.56;6299422;22;20191;-78
2023/03/27 06:15:59;;;;;;;21.50;9.47;;;;;;;10.95;49.81;93100.34;6301095;22;20198;-79
2023/03/27 06:18:26;;;;;;;27.67;11.43;;;;;;;11.08;49.83;93130.25;6300789;22;20157;-77
2023/03/27 06:20:53;;;;;;;36.77;13.83;;;;;;;11.01;49.45;93112.31;6296386;22;20172;-78
2023/03/27 06:23:20;;;;;;;32.30;15.57;;;;;;;10.92;50.20;93100.06;6298646;22;20160;-77
2023/03/27 06:25:50;;;;;;;30.27;15.07;;;;;;;10.92;50.51;93095.66;6300162;22;20164;-77
2023/03/27 06:28:16;;;;;;;31.90;14.23;;;;;;;10.96;50.33;93112.31;6299128;22;20212;-77
2023/03/27 06:30:43;;;;;;;29.80;14.73;;;;;;;10.99;50.88;93088.41;6297918;22;20278;-77
2023/03/27 06:33:10;;;;;;;33.37;15.20;;;;;;;10.98;51.55;93112.81;6298400;22;20168;-76
2023/03/27 06:35:38;;;;;;;33.23;16.57;;;;;;;11.03;51.66;93078.25;6298420;22;20223;-79
2023/03/27 06:38:05;;;;;;;34.87;15.73;;;;;;;11.08;51.88;93091.28;6300885;22;20563;-77
2023/03/27 06:40:34;;;;;;;30.07;12.20;;;;;;;11.11;52.13;93101.91;6299103;22;20179;-77
2023/03/27 06:43:04;;;;;;;27.50;12.30;;;;;;;11.22;51.88;93113.13;6299112;22;20251;-76
2023/03/27 06:45:33;;;;;;;26.67;11.33;;;;;;;11.32;52.08;93108.69;6298961;22;20332;-77
2023/03/27 06:48:02;;;;;;;21.03;9.70;;;;;;;11.33;51.58;93097.25;6298928;22;20175;-76
2023/03/27 06:50:31;;;;;;;18.73;7.50;;;;;;;11.47;51.45;93107.91;6300560;22;20688;-77
2023/03/27 06:52:58;;;;;;;15.37;6.33;;;;;;;11.58;51.54;93122.47;6299134;22;20256;-77
2023/03/27 06:55:27;;;;;;;9.50;5.50;;;;;;;11.65;51.14;93132.63;6298421;22;20265;-76
2023/03/27 06:57:56;;;;;;;10.80;5.00;;;;;;;11.78;49.76;93151.09;6303044;22;20168;-77
2023/03/27 07:00:28;;;;;;;15.60;5.93;;;;;;;11.87;49.94;93127.91;6303520;22;20203;-77
2023/03/27 07:02:58;;;;;;;14.90;5.47;;;;;;;11.83;50.12;93137.31;6304026;22;20153;-77
2023/03/27 07:05:26;;;;;;;13.47;5.87;;;;;;;11.98;49.98;93128.72;6303615;22;20168;-77
2023/03/27 07:07:54;;;;;;;6.50;3.90;;;;;;;11.98;48.27;93115.69;6304057;22;20229;-77
2023/03/27 07:10:21;;;;;;;8.40;3.93;;;;;;;12.09;48.25;93104.19;6304492;22;20537;-77
2023/03/27 07:12:49;;;;;;;8.80;4.30;;;;;;;12.24;48.01;93136.16;6304231;22;20254;-77
2023/03/27 07:15:17;;;;;;;15.83;3.90;;;;;;;12.38;47.98;93118.94;6303611;22;20202;-77
2023/03/27 07:17:53;;;;;;;8.07;4.13;;;;;;;12.51;47.83;93123.59;6303909;22;20196;-77
2023/03/27 07:20:19;;;;;;;10.07;3.80;;;;;;;12.65;47.58;93115.94;6304057;22;20494;-76
2023/03/27 07:22:46;;;;;;;4.53;3.10;;;;;;;12.84;47.07;93121.34;6303099;22;20172;-77
2023/03/27 07:25:13;;;;;;;5.13;3.63;;;;;;;13.01;47.29;93129.59;6303195;22;20172;-77
2023/03/27 07:27:40;;;;;;;5.23;3.57;;;;;;;13.07;47.11;93107.66;6303424;22;20164;-77
2023/03/27 07:30:10;;;;;;;10.37;3.80;;;;;;;13.15;47.17;93120.13;6303525;22;20825;-75
2023/03/27 07:32:37;;;;;;;8.27;3.90;;;;;;;13.20;47.40;93114.88;6304019;22;20157;-77
2023/03/27 07:35:07;;;;;;;6.20;3.63;;;;;;;13.27;46.99;93119.81;6303771;22;20168;-80
2023/03/27 07:37:34;;;;;;;6.17;3.93;;;;;;;13.33;46.92;93121.31;6303839;22;20174;-75
2023/03/27 07:40:01;;;;;;;6.33;3.73;;;;;;;13.44;47.10;93130.63;6304390;22;20172;-75
2023/03/27 07:42:28;;;;;;;7.53;4.07;;;;;;;13.49;46.49;93099.25;6304946;22;20186;-76
2023/03/27 07:44:55;;;;;;;8.10;3.50;;;;;;;13.32;47.05;93091.06;6306419;22;20171;-76
2023/03/27 07:47:21;;;;;;;6.83;4.03;;;;;;;13.43;47.18;93098.53;6306010;22;20163;-76
2023/03/27 07:49:48;;;;;;;5.87;3.50;;;;;;;13.42;47.82;93093.59;6305264;22;20169;-76
2023/03/27 07:52:16;;;;;;;7.20;3.97;;;;;;;13.39;48.06;93115.78;6305696;22;20175;-75
2023/03/27 07:54:43;;;;;;;8.00;3.73;;;;;;;13.51;47.70;93121.44;6306474;22;20175;-76
2023/03/27 07:57:10;;;;;;;13.93;4.13;;;;;;;13.53;48.33;93116.69;6306454;22;20199;-76
2023/03/27 07:59:37;;;;;;;7.20;3.63;;;;;;;13.70;47.74;93116.31;6305691;22;20167;-76
2023/03/27 08:02:04;;;;;;;10.30;3.63;;;;;;;13.82;47.90;93121.19;6305808;22;20287;-76
2023/03/27 08:04:31;;;;;;;7.50;3.40;;;;;;;13.93;47.29;93101.75;6304254;22;20503;-76
2023/03/27 08:06:58;;;;;;;7.60;4.10;;;;;;;14.03;46.92;93099.03;6306219;22;20183;-77
2023/03/27 08:09:26;;;;;;;6.13;4.17;;;;;;;14.09;46.50;93098.69;6306083;22;20234;-76
2023/03/27 08:11:53;;;;;;;7.10;4.20;;;;;;;14.20;46.83;93094.13;6304975;22;20168;-77
2023/03/27 08:14:19;;;;;;;7.90;4.33;;;;;;;14.26;47.08;93087.03;6305691;22;20164;-77
2023/03/27 08:16:46;;;;;;;13.50;4.50;;;;;;;14.30;46.69;93094.03;6305337;22;20203;-76
2023/03/27 08:19:13;;;;;;;6.70;4.20;;;;;;;14.34;46.94;93068.94;6305833;22;20255;-76
2023/03/27 08:21:40;;;;;;;12.53;4.17;;;;;;;14.17;47.19;93055.50;6305832;22;20631;-77
2023/03/27 08:24:08;;;;;;;10.83;4.17;;;;;;;14.19;47.76;93048.19;6305436;22;20171;-76
2023/03/27 08:26:36;;;;;;;8.87;4.30;;;;;;;14.26;47.41;93045.22;6305870;22;20172;-77
2023/03/27 08:29:03;;;;;;;8.47;4.70;;;;;;;14.27;47.95;93055.41;6306359;22;20168;-77
2023/03/27 08:31:30;;;;;;;12.07;5.00;;;;;;;14.33;48.37;93053.53;6305546;22;20502;-77
2023/03/27 08:33:57;;;;;;;8.20;5.17;;;;;;;14.30;49.02;93059.28;6304498;22;20579;-76
2023/03/27 08:36:26;;;;;;;9.33;4.40;;;;;;;14.37;48.87;93067.59;6305577;22;20188;-76
2023/03/27 08:38:53;;;;;;;10.87;4.43;;;;;;;14.44;48.60;93044.50;6305445;22;20168;-76
2023/03/27 08:41:30;;;;;;;7.83;5.80;;;;;;;14.41;48.45;93056.28;6305484;22;20175;-77
2023/03/27 08:44:02;;;;;;;8.60;4.77;;;;;;;14.42;47.96;93068.31;6305234;22;20192;-77
2023/03/27 08:46:36;;;;;;;8.97;4.80;;;;;;;14.46;48.43;93082.34;6305073;22;20507;-77
2023/03/27 08:49:08;;;;;;;8.43;4.37;;;;;;;14.50;48.08;93087.81;6305453;22;20148;-77
2023/03/27 08:51:41;;;;;;;8.33;4.70;;;;;;;14.51;47.51;93087.56;6305664;22;20661;-76
2023/03/27 08:54:11;;;;;;;3.80;3.20;;;;;;;14.50;46.04;93049.38;6305285;22;20580;-76
2023/03/27 08:56:38;;;;;;;8.93;3.53;;;;;;;14.45;47.25;93046.06;6305525;22;20514;-76
2023/03/27 08:59:13;;;;;;;8.10;3.50;;;;;;;14.64;45.75;93013.63;6305880;22;20164;-75
2023/03/27 09:01:45;;;;;;;10.03;3.00;;;;;;;14.87;43.95;93011.22;6305363;22;20159;-76
2023/03/27 09:04:23;;;;;;;9.33;3.27;;;;;;;15.04;43.63;92988.72;6304962;22;20153;-76
2023/03/27 09:07:00;;;;;;;6.57;3.40;;;;;;;15.25;44.29;92999.63;6305630;22;20160;-75
2023/03/27 09:09:41;;;;;;;12.97;4.30;;;;;;;15.45;42.88;92978.34;6305393;22;20246;-75
2023/03/27 09:12:23;;;;;;;8.27;3.70;;;;;;;15.72;41.30;93002.00;6305736;22;20170;-76
2023/03/27 09:14:56;;;;;;;10.00;3.60;;;;;;;15.98;40.17;93030.34;6305557;22;20152;-76
2023/03/27 09:17:28;;;;;;;8.47;3.43;;;;;;;16.15;38.76;93010.34;6304834;22;20200;-76
2023/03/27 09:20:00;;;;;;;17.67;3.70;;;;;;;16.21;39.91;93003.16;6305202;22;20214;-76
2023/03/27 09:22:31;;;;;;;7.13;3.30;;;;;;;16.32;38.87;93009.75;6305211;22;20161;-76
2023/03/27 09:25:07;;;;;;;12.77;3.37;;;;;;;16.27;38.71;93023.75;6305544;22;20152;-76
2023/03/27 09:27:36;;;;;;;8.30;3.00;;;;;;;16.14;39.58;93068.28;6305643;22;20162;-77
2023/03/27 09:30:19;;;;;;;10.07;3.10;;;;;;;15.65;43.77;93069.69;6304877;22;20221;-76
2023/03/27 09:32:48;;;;;;;5.93;2.80;;;;;;;15.30;44.35;93036.19;6304670;22;20587;-76
2023/03/27 09:35:16;;;;;;;9.17;3.27;;;;;;;15.12;45.50;93035.16;6305280;22;20164;-77
2023/03/27 09:37:45;;;;;;;7.20;2.97;;;;;;;15.05;45.70;93026.91;6305093;22;20267;-76
2023/03/27 09:40:22;;;;;;;8.23;5.03;;;;;;;14.89;46.43;93036.03;6304552;22;20653;-76
2023/03/27 09:42:51;;;;;;;8.83;3.00;;;;;;;14.70;48.34;93014.34;6305692;22;20223;-76
2023/03/27 09:45:20;;;;;;;3.60;2.70;;;;;;;14.71;47.69;93008.06;6306015;22;20175;-76
2023/03/27 09:47:57;;;;;;;5.73;3.30;;;;;;;14.66;47.84;93014.13;6305547;22;20206;-76
2023/03/27 09:50:29;;;;;;;8.13;3.23;;;;;;;14.60;48.35;92999.56;6305764;22;20160;-75
2023/03/27 09:53:11;;;;;;;6.83;3.67;;;;;;;14.59;48.96;92997.25;6313726;22;20152;-77
2023/03/27 09:55:51;;;;;;;6.33;3.40;;;;;;;14.49;49.17;93002.59;6314857;22;20170;-76
2023/03/27 09:58:38;;;;;;;8.53;4.30;;;;;;;14.52;49.33;93005.44;6313240;22;20623;-75
2023/03/27 10:01:16;;;;;;;11.57;5.70;;;;;;;14.51;50.04;92998.66;6314050;22;20548;-76
2023/03/27 10:03:48;;;;;;;12.20;5.00;;;;;;;14.42;50.29;93012.66;6314051;22;20159;-77
2023/03/27 10:06:24;;;;;;;8.23;3.83;;;;;;;14.41;49.51;93004.03;6313851;22;20153;-77
2023/03/27 10:08:52;;;;;;;10.60;4.77;;;;;;;14.42;50.27;93015.25;6317584;22;20163;-75
2023/03/27 10:11:22;;;;;;;7.00;4.03;;;;;;;14.46;50.22;93014.41;6310580;22;20169;-77
2023/03/27 10:13:51;;;;;;;6.47;3.20;;;;;;;14.51;50.55;93040.50;6313775;22;20164;-76
2023/03/27 10:16:21;;;;;;;6.73;4.30;;;;;;;14.46;51.37;93065.91;6313212;22;20196;-75
2023/03/27 10:18:52;;;;;;;7.97;3.43;;;;;;;14.39;52.37;93036.72;6312564;22;20167;-76
2023/03/27 10:21:26;;;;;;;9.13;3.80;;;;;;;14.39;53.43;93032.28;6306553;22;20163;-76
2023/03/27 10:24:00;;;;;;;7.07;3.43;;;;;;;14.35;53.47;93040.94;6306115;22;20202;-77
2023/03/27 10:26:30;;;;;;;7.17;3.50;;;;;;;14.28;54.99;93024.81;6305354;22;20156;-76
2023/03/27 10:29:01;;;;;;;3.90;3.03;;;;;;;14.14;53.39;93012.41;6304765;22;20164;-76
2023/03/27 10:31:31;;;;;;;7.43;3.13;;;;;;;14.09;52.70;93012.50;6304500;22;20200;-77
2023/03/27 10:34:01;;;;;;;5.70;3.30;;;;;;;14.12;53.92;93027.59;6304620;22;20164;-77
2023/03/27 10:36:33;;;;;;;6.93;3.03;;;;;;;14.15;51.03;93011.38;6304365;22;20187;-76
2023/03/27 10:39:04;;;;;;;6.83;3.77;;;;;;;14.23;53.83;93010.75;6304505;22;20157;-76
2023/03/27 10:41:35;;;;;;;7.07;4.83;;;;;;;14.20;57.35;92997.47;6304750;22;20556;-77
2023/03/27 10:44:05;;;;;;;7.23;5.20;;;;;;;14.23;59.78;92989.84;6304097;22;20589;-76
2023/03/27 10:46:39;;;;;;;11.53;4.43;;;;;;;14.25;57.80;92970.50;6304807;22;20160;-77
2023/03/27 10:49:18;;;;;;;7.13;4.40;;;;;;;14.29;58.56;92966.25;6304943;22;20174;-77
2023/03/27 10:51:50;;;;;;;8.57;4.00;;;;;;;14.37;59.60;92965.69;6304492;22;20168;-77
2023/03/27 10:54:28;;;;;;;6.37;4.07;;;;;;;14.36;58.24;92937.97;6304601;22;20175;-76
2023/03/27 10:57:01;;;;;;;6.70;3.50;;;;;;;14.50;59.09;92931.75;6304991;22;20184;-77
2023/03/27 10:59:35;;;;;;;7.00;3.50;;;;;;;14.69;57.54;92921.25;6304227;22;20642;-77
2023/03/27 11:02:15;;;;;;;6.80;3.50;;;;;;;14.89;57.92;92941.09;6304038;22;20156;-78
2023/03/27 11:04:48;;;;;;;9.53;3.37;;;;;;;15.04;59.04;92953.91;6305060;22;20175;-76
2023/03/27 11:07:19;;;;;;;3.63;2.93;;;;;;;14.98;59.67;92950.63;6305232;22;20210;-77
2023/03/27 11:09:57;;;;;;;3.53;2.63;;;;;;;15.02;59.57;92937.75;6304504;22;20152;-76
2023/03/27 11:12:27;;;;;;;5.43;2.60;;;;;;;15.09;60.59;92946.75;6305250;22;20160;-77
2023/03/27 11:15:00;;;;;;;3.73;2.53;;;;;;;15.10;61.40;92968.47;6304681;22;20226;-77
2023/03/27 11:17:36;;;;;;;4.07;2.57;;;;;;;14.73;61.62;92964.88;6303842;22;20816;-76
2023/03/27 11:20:10;;;;;;;5.57;2.90;;;;;;;14.66;63.86;92974.16;6304143;22;20160;-77
2023/03/27 11:22:42;;;;;;;6.00;2.80;;;;;;;14.59;64.29;92986.78;6304549;22;20160;-75
2023/03/27 11:25:18;;;;;;;8.73;3.60;;;;;;;14.51;65.84;93026.66;6304387;22;20209;-77
2023/03/27 11:27:54;;;;;;;4.73;3.03;;;;;;;14.47;64.97;93028.25;6304154;22;20152;-77
2023/03/27 11:30:34;;;;;;;8.10;4.00;;;;;;;14.09;64.74;93038.63;6303811;22;20157;-77
2023/03/27 11:33:31;;;;;;;5.43;3.43;;;;;;;13.74;69.21;93049.44;6303824;22;20873;-76
2023/03/27 11:36:07;;;;;;;5.77;2.70;;;;;;;13.57;70.15;93025.59;6294243;22;20202;-77
2023/03/27 11:38:38;;;;;;;4.57;2.70;;;;;;;13.22;72.64;93025.94;6303798;22;20180;-76
2023/03/27 11:41:07;;;;;;;7.93;4.50;;;;;;;13.14;72.56;93040.31;6304483;22;20227;-76
2023/03/27 11:43:38;;;;;;;5.30;3.13;;;;;;;13.20;72.63;93080.97;6303887;22;20168;-78